Newark Liberty International Airport
KEWR : now visible

Airfield :











YOU CAN JOIN US ON...

 
LOGIN :

Register | Disclaimer

   EN    FR    IT 

 









Legend :    VFR   Marginal VFR   IFR   Intensive IFR   Very Intensive IFR
Visi :
Ceiling :
>= 8 km
>= 3000ft
5 to 8 km
1000 to 3000 ft
1500m to 5 km
500 to 1000 ft
800 to 1500m
200 to 500 ft
< 800m
< 200 ft
Symbols :   Thunderstorms  Fog  Heavy snow  Heavy precipitations  Wind > 20 kt






- Airport Elevation : 18 ft
- IATA code : EWR


KEWR - Newark Liberty International

CURRENT METAR :
  • 081951Z 16005KT 10SM FEW037 SCT050 28/19 A3011 RMK AO2 SLP195 T02830194

EXPIRED METARs :
  • 081851Z VRB04KT 10SM FEW034 SCT040 BKN050 27/18 A3012 RMK AO2 SLP199 T02720183
  • 081751Z VRB05KT 10SM SCT030 BKN045 28/20 A3013 RMK AO2 SLP204 T02780200 10278 20222 56007

TAF KEWR
Valid from the 08 at 20:00 until the 10 at 00:00 UTC


081936Z 0820/0924 VRB05KT P6SM SCT040
FM090100 VRB02KT P6SM SCT012 SCT040
FM091000 VRB01KT 6SM BR BKN012
FM091200 VRB02KT P6SM SCT012
FM091800 20006KT P6SM SCT060
FM092100 17007KT P6SM SCT060
KZNY FIR / North America



MET'MAP, your aeronautical weather chart ! - Copyright ORBIFLY December 2007 - Disclaimer

ORBIFLY MET'MAP TEAM :

Programming & Development : Alexandra Zaïnal
Concept & original design : Baudouin d'Aumeries
Assistance for programming : Marc-Olivier Méhu
Technical & hardware support : Manuel Goepfert

Contact : metmap@orbifly.com




SOURCES & CREDITS :

   NOAA       Earth
Advisory